Time;durP1;ratioP1;P1;durP2;ratioP2;P2;SDS_P1;SDS_P2;PMS_P1;PMS_P2;Temp;Humidity;BMP_temperature;BMP_pressure;BME280_temperature;BME280_humidity;BME280_pressure;Samples;Min_cycle;Max_cycle;Signal;HPM_P1;HPM_P2
2022/11/08 00:16:45;;;;;;;;;;;;;;;19.16;64.42;95766.19;10496406;28;2090;-49
2022/11/08 00:21:45;;;;;;;;;;;;;;;19.14;63.90;95763.03;10497108;28;2294;-52
2022/11/08 00:26:46;;;;;;;;;;;;;;;19.12;63.73;95759.88;10492339;28;2097;-49
2022/11/08 00:31:46;;;;;;;;;;;;;;;19.09;63.95;95760.41;10491951;28;2043;-51
2022/11/08 00:36:46;;;;;;;;;;;;;;;19.08;64.14;95758.81;10489488;28;1981;-53
2022/11/08 00:41:46;;;;;;;;;;;;;;;19.06;64.37;95755.66;10490854;28;1962;-49
2022/11/08 00:46:47;;;;;;;;;;;;;;;19.04;63.94;95752.50;10489778;28;1947;-50
2022/11/08 00:51:47;;;;;;;;;;;;;;;19.03;64.17;95743.06;10493154;28;2024;-54
2022/11/08 00:56:48;;;;;;;;;;;;;;;19.00;64.58;95743.56;10489286;28;1951;-50
2022/11/08 01:01:48;;;;;;;;;;;;;;;18.98;64.00;95737.81;10499553;28;2055;-52
2022/11/08 01:06:48;;;;;;;;;;;;;;;18.97;64.37;95725.72;10490327;28;1963;-48
2022/11/08 01:11:49;;;;;;;;;;;;;;;18.95;63.93;95714.69;10488548;28;2048;-53
2022/11/08 01:16:51;;;;;;;;;;;;;;;18.93;63.82;95711.56;10479754;28;2193;-50
2022/11/08 01:21:51;;;;;;;;;;;;;;;18.92;64.56;95709.97;10488178;28;1973;-53
2022/11/08 01:26:51;;;;;;;;;;;;;;;18.89;64.26;95707.09;10487286;28;2070;-51
2022/11/08 01:31:52;;;;;;;;;;;;;;;18.88;64.23;95701.03;10489550;28;2110;-48
2022/11/08 01:36:52;;;;;;;;;;;;;;;18.86;63.66;95697.88;10489902;28;1943;-50
2022/11/08 01:41:52;;;;;;;;;;;;;;;18.84;63.29;95689.47;10487980;28;2054;-54
2022/11/08 01:46:53;;;;;;;;;;;;;;;18.83;63.20;95692.38;10486488;28;1954;-52
2022/11/08 01:51:54;;;;;;;;;;;;;;;18.83;64.00;95687.91;10486207;28;2070;-51
2022/11/08 01:56:55;;;;;;;;;;;;;;;18.81;64.18;95687.41;10494004;28;2130;-50
2022/11/08 02:01:55;;;;;;;;;;;;;;;18.79;63.48;95681.63;10485971;28;2025;-52
2022/11/08 02:06:55;;;;;;;;;;;;;;;18.78;62.87;95671.34;10481289;28;1943;-52
2022/11/08 02:11:56;;;;;;;;;;;;;;;18.76;63.35;95668.22;10485377;28;1996;-53
2022/11/08 02:16:56;;;;;;;;;;;;;;;18.75;63.76;95661.41;10493717;28;2009;-50
2022/11/08 02:21:57;;;;;;;;;;;;;;;18.72;63.92;95646.94;10488676;28;2135;-52
2022/11/08 02:26:57;;;;;;;;;;;;;;;18.71;63.34;95650.66;10485683;28;2015;-51
2022/11/08 02:31:58;;;;;;;;;;;;;;;18.69;63.26;95645.63;10485191;28;2073;-52
2022/11/08 02:36:58;;;;;;;;;;;;;;;18.69;63.60;95645.63;10485101;28;2073;-51
2022/11/08 02:41:59;;;;;;;;;;;;;;;18.67;63.78;95641.69;10487781;28;2003;-54
2022/11/08 02:47:00;;;;;;;;;;;;;;;18.65;63.03;95647.22;10486668;28;1982;-50
2022/11/08 02:52:00;;;;;;;;;;;;;;;18.64;63.21;95636.97;10493847;28;2046;-53
2022/11/08 02:57:00;;;;;;;;;;;;;;;18.64;63.34;95634.34;10486177;28;2007;-49
2022/11/08 03:02:00;;;;;;;;;;;;;;;18.62;62.89;95633.84;10483639;28;2090;-50
2022/11/08 03:07:01;;;;;;;;;;;;;;;18.61;63.10;95629.63;10490744;28;2101;-53
2022/11/08 03:12:01;;;;;;;;;;;;;;;18.59;63.24;95623.84;10487453;28;2031;-51
2022/11/08 03:17:01;;;;;;;;;;;;;;;18.57;63.07;95611.00;10494122;28;2014;-52
2022/11/08 03:22:01;;;;;;;;;;;;;;;18.56;62.11;95616.50;10492589;28;1962;-51
2022/11/08 03:27:02;;;;;;;;;;;;;;;18.54;62.76;95621.25;10487968;28;1967;-53
2022/11/08 03:32:03;;;;;;;;;;;;;;;18.53;62.99;95620.44;10485637;28;2062;-51
2022/11/08 03:37:04;;;;;;;;;;;;;;;18.53;62.39;95630.16;10487298;28;2036;-52
2022/11/08 03:42:05;;;;;;;;;;;;;;;18.50;62.02;95630.69;10486698;28;2299;-52
2022/11/08 03:47:05;;;;;;;;;;;;;;;18.49;62.55;95626.47;10490669;28;1986;-52
2022/11/08 03:52:06;;;;;;;;;;;;;;;18.47;62.02;95610.22;10493434;28;2133;-51
2022/11/08 03:57:06;;;;;;;;;;;;;;;18.46;61.72;95612.06;10494003;28;2002;-50
2022/11/08 04:02:06;;;;;;;;;;;;;;;18.46;62.41;95609.44;10490875;28;1963;-51
2022/11/08 04:07:08;;;;;;;;;;;;;;;18.45;61.50;95607.06;10495004;28;2074;-49
2022/11/08 04:21:17;;;;;;;;;;;;;;;18.43;61.46;95593.38;10491326;28;1937;-52
2022/11/08 04:22:48;;;;;;;;;;;;;;;18.42;61.13;95594.44;10491126;28;2046;-51
2022/11/08 04:27:48;;;;;;;;;;;;;;;18.40;61.23;95589.44;10490387;28;1968;-49
2022/11/08 04:32:48;;;;;;;;;;;;;;;18.42;61.75;95592.59;10491487;28;2469;-53
2022/11/08 04:37:49;;;;;;;;;;;;;;;18.43;61.67;95588.13;10492093;28;2133;-53
2022/11/08 04:42:49;;;;;;;;;;;;;;;18.45;61.72;95586.84;10483145;28;1999;-52
2022/11/08 04:48:01;;;;;;;;;;;;;;;18.48;61.76;95577.69;10482031;28;1950;-49
2022/11/08 04:53:01;;;;;;;;;;;;;;;18.49;60.91;95569.53;10471939;28;1904;-52
2022/11/08 04:58:04;;;;;;;;;;;;;;;18.47;57.30;95562.97;10486201;28;2007;-51
2022/11/08 05:03:07;;;;;;;;;;;;;;;18.47;55.77;95562.97;10485536;28;1951;-53
2022/11/08 05:08:08;;;;;;;;;;;;;;;18.47;54.97;95569.00;10485431;28;2102;-51
2022/11/08 05:13:08;;;;;;;;;;;;;;;18.52;54.30;95566.38;10483881;28;2036;-53
2022/11/08 05:18:08;;;;;;;;;;;;;;;18.57;54.04;95547.19;10486349;28;1959;-50
2022/11/08 05:23:24;;;;;;;;;;;;;;;18.62;53.81;95547.19;10483799;28;2000;-50
2022/11/08 05:28:25;;;;;;;;;;;;;;;18.64;53.20;95548.53;10484118;28;1958;-51
2022/11/08 05:33:25;;;;;;;;;;;;;;;18.68;53.38;95544.31;10483586;28;1955;-52
2022/11/08 05:38:28;;;;;;;;;;;;;;;18.73;52.49;95543.50;10486340;28;2006;-48
2022/11/08 05:43:29;;;;;;;;;;;;;;;18.76;52.15;95545.59;10481826;28;2067;-50
2022/11/08 05:48:29;;;;;;;;;;;;;;;18.79;52.51;95545.06;10482083;28;2010;-53
2022/11/08 05:53:39;;;;;;;;;;;;;;;18.82;52.64;95534.03;10489795;28;1982;-49
2022/11/08 05:58:39;;;;;;;;;;;;;;;18.83;51.83;95538.22;10483958;28;2046;-51
2022/11/08 06:03:41;;;;;;;;;;;;;;;18.86;51.50;95547.41;10480591;28;2139;-51
2022/11/08 06:08:43;;;;;;;;;;;;;;;18.88;51.59;95547.91;10486179;28;2244;-50
2022/11/08 06:13:43;;;;;;;;;;;;;;;18.92;51.55;95548.97;10481710;28;1999;-50
2022/11/08 06:18:44;;;;;;;;;;;;;;;18.93;50.98;95546.06;10482986;28;2077;-48
2022/11/08 06:23:44;;;;;;;;;;;;;;;18.94;51.20;95552.88;10481337;28;1943;-52
2022/11/08 06:28:45;;;;;;;;;;;;;;;18.98;52.17;95551.31;10480861;28;2040;-49
2022/11/08 06:33:45;;;;;;;;;;;;;;;19.00;52.33;95557.06;10481246;28;2118;-51
2022/11/08 06:38:46;;;;;;;;;;;;;;;19.00;51.15;95557.06;10478522;28;2088;-51
2022/11/08 06:43:47;;;;;;;;;;;;;;;19.03;51.46;95558.38;10475715;28;2082;-51
2022/11/08 06:48:47;;;;;;;;;;;;;;;19.03;50.58;95563.63;10477510;28;2030;-49
2022/11/08 06:53:48;;;;;;;;;;;;;;;19.03;50.27;95561.00;10484016;28;2119;-50
2022/11/08 06:58:48;;;;;;;;;;;;;;;19.11;51.98;95563.09;10477940;28;2127;-51
2022/11/08 07:03:48;;;;;;;;;;;;;;;19.23;55.67;95574.84;10476002;28;1940;-46
2022/11/08 07:08:51;;;;;;;;;;;;;;;19.24;51.53;95567.78;10474472;28;2146;-50
2022/11/08 07:13:51;;;;;;;;;;;;;;;19.23;50.63;95566.19;10475666;28;2109;-50
2022/11/08 07:18:51;;;;;;;;;;;;;;;19.22;50.32;95565.41;10480816;28;1951;-51
2022/11/08 07:23:52;;;;;;;;;;;;;;;19.24;50.17;95567.78;10484966;28;2035;-48
2022/11/08 07:28:52;;;;;;;;;;;;;;;19.26;50.35;95571.72;10485937;28;1937;-53
2022/11/08 07:33:53;;;;;;;;;;;;;;;19.31;49.94;95573.50;10484602;28;1888;-51
2022/11/08 07:38:53;;;;;;;;;;;;;;;19.34;49.97;95567.75;10485110;28;2119;-53
2022/11/08 07:43:53;;;;;;;;;;;;;;;19.36;50.17;95563.81;10484852;28;2097;-49
2022/11/08 07:48:54;;;;;;;;;;;;;;;19.40;49.68;95567.47;10487337;28;1968;-50
2022/11/08 07:53:54;;;;;;;;;;;;;;;19.43;49.37;95563.53;10486488;28;2008;-49
2022/11/08 07:58:54;;;;;;;;;;;;;;;19.46;49.53;95561.13;10475794;28;1992;-51
2022/11/08 08:03:56;;;;;;;;;;;;;;;19.48;49.37;95548.50;10475944;28;1937;-51
2022/11/08 08:08:56;;;;;;;;;;;;;;;19.52;49.23;95550.56;10473328;28;1931;-52
2022/11/08 08:13:56;;;;;;;;;;;;;;;19.55;49.61;95545.56;10471839;28;1955;-51
2022/11/08 08:18:57;;;;;;;;;;;;;;;19.58;49.18;95541.63;10506950;27;1951;-51
2022/11/08 08:23:57;;;;;;;;;;;;;;;19.61;49.37;95547.13;10471003;28;2047;-52
2022/11/08 08:28:57;;;;;;;;;;;;;;;19.64;49.00;95553.69;10470711;28;1992;-53
2022/11/08 08:33:58;;;;;;;;;;;;;;;19.68;49.25;95550.22;10472113;28;2025;-50
2022/11/08 08:38:58;;;;;;;;;;;;;;;19.71;49.25;95546.25;10474272;28;2045;-49
2022/11/08 08:43:58;;;;;;;;;;;;;;;19.75;48.99;95552.56;10469688;28;2031;-51
2022/11/08 08:48:58;;;;;;;;;;;;;;;19.78;48.86;95552.00;10470975;28;1971;-52
2022/11/08 08:53:59;;;;;;;;;;;;;;;19.83;49.08;95549.34;10477631;28;1972;-52
2022/11/08 08:58:59;;;;;;;;;;;;;;;19.86;49.32;95548.81;10469599;28;1996;-52
2022/11/08 09:03:59;;;;;;;;;;;;;;;19.90;49.02;95550.63;10481932;28;2083;-52
2022/11/08 09:08:59;;;;;;;;;;;;;;;19.92;49.42;95556.41;10475904;28;1967;-50
2022/11/08 09:14:00;;;;;;;;;;;;;;;19.94;48.76;95545.59;10468129;28;1919;-52
2022/11/08 09:19:01;;;;;;;;;;;;;;;20.03;51.28;95549.97;10472271;28;2044;-50
2022/11/08 09:24:02;;;;;;;;;;;;;;;20.10;52.40;95553.09;10470718;28;1997;-50
2022/11/08 09:29:03;;;;;;;;;;;;;;;20.08;50.08;95546.53;10471809;28;2053;-51
2022/11/08 09:34:03;;;;;;;;;;;;;;;20.01;48.46;95540.81;10470691;28;1940;-52
2022/11/08 09:39:10;;;;;;;;;;;;;;;19.98;47.71;95546.63;10470721;28;2096;-50
2022/11/08 09:44:25;;;;;;;;;;;;;;;19.99;47.87;95548.97;10470733;28;2011;-52
2022/11/08 09:49:30;;;;;;;;;;;;;;;19.99;47.10;95554.22;10475900;28;2044;-54
2022/11/08 09:54:37;;;;;;;;;;;;;;;20.01;47.91;95567.88;10473491;28;2116;-47
2022/11/08 09:59:38;;;;;;;;;;;;;;;20.03;48.28;95546.59;10469406;28;2180;-53
2022/11/08 10:04:41;;;;;;;;;;;;;;;20.07;48.47;95544.97;10473018;28;2072;-50
2022/11/08 10:10:06;;;;;;;;;;;;;;;20.20;51.85;95539.09;10469560;28;1978;-53
2022/11/08 10:15:14;;;;;;;;;;;;;;;20.33;52.65;95543.75;10468152;28;1966;-52
2022/11/08 10:20:20;;;;;;;;;;;;;;;20.38;53.34;95542.91;10468878;28;1932;-51
2022/11/08 10:25:37;;;;;;;;;;;;;;;20.39;52.06;95534.72;10466240;28;1929;-52
2022/11/08 10:30:39;;;;;;;;;;;;;;;20.36;51.26;95535.28;10466315;28;1992;-51
2022/11/08 10:35:40;;;;;;;;;;;;;;;20.33;50.18;95527.94;10475620;28;1979;-51
2022/11/08 10:40:53;;;;;;;;;;;;;;;20.26;48.78;95527.47;10480357;28;2028;-52
2022/11/08 10:45:53;;;;;;;;;;;;;;;20.32;51.89;95521.09;10480661;28;2062;-50
2022/11/08 10:50:54;;;;;;;;;;;;;;;20.36;50.66;95519.47;10485003;28;2010;-47
2022/11/08 10:55:58;;;;;;;;;;;;;;;20.28;48.91;95517.44;10489091;28;1932;-50
2022/11/08 11:01:00;;;;;;;;;;;;;;;20.37;51.27;95509.75;10487236;28;1963;-52
2022/11/08 11:06:03;;;;;;;;;;;;;;;20.45;51.11;95506.50;10491525;28;2036;-50
2022/11/08 11:11:22;;;;;;;;;;;;;;;20.51;52.53;95513.28;10492882;28;2073;-49
2022/11/08 11:16:23;;;;;;;;;;;;;;;20.43;50.20;95501.53;10491862;28;2237;-50
2022/11/08 11:21:25;;;;;;;;;;;;;;;20.45;49.66;95507.28;10491473;28;2252;-53
2022/11/08 11:26:28;;;;;;;;;;;;;;;20.51;50.49;95506.19;10489869;28;2038;-51
2022/11/08 11:31:29;;;;;;;;;;;;;;;20.57;50.81;95493.72;10490468;28;2054;-53
2022/11/08 11:36:30;;;;;;;;;;;;;;;20.70;50.54;95490.44;10490879;28;2069;-53
2022/11/08 11:41:37;;;;;;;;;;;;;;;20.72;50.58;95493.59;10494235;28;1974;-51
2022/11/08 11:46:57;;;;;;;;;;;;;;;20.76;50.92;95486.69;10494285;28;1959;-50
2022/11/08 11:51:57;;;;;;;;;;;;;;;20.87;51.26;95482.88;10491899;28;2042;-52
2022/11/08 11:57:00;;;;;;;;;;;;;;;20.90;51.33;95479.66;10496531;28;2059;-53
2022/11/08 12:02:18;;;;;;;;;;;;;;;20.84;50.62;95481.59;10492364;28;1983;-52
2022/11/08 12:07:33;;;;;;;;;;;;;;;20.80;50.15;95487.69;10491788;28;1994;-50
2022/11/08 12:12:40;;;;;;;;;;;;;;;20.77;50.12;95486.41;10489584;28;1923;-50
2022/11/08 12:18:03;;;;;;;;;;;;;;;20.76;48.51;95476.94;10485672;28;2085;-49
2022/11/08 12:23:06;;;;;;;;;;;;;;;20.84;49.77;95481.59;10480105;28;2381;-48
2022/11/08 12:28:07;;;;;;;;;;;;;;;20.89;50.17;95478.13;10493713;28;2167;-49
2022/11/08 12:33:19;;;;;;;;;;;;;;;20.93;49.97;95474.66;10483804;28;1954;-48
2022/11/08 12:38:20;;;;;;;;;;;;;;;20.89;51.78;95471.00;10485290;28;2030;-47
2022/11/08 12:43:28;;;;;;;;;;;;;;;20.95;53.26;95477.00;10482488;28;2115;-46
2022/11/08 12:48:47;;;;;;;;;;;;;;;21.01;54.54;95476.66;10486580;28;2011;-49
2022/11/08 12:53:47;;;;;;;;;;;;;;;21.37;54.71;95484.91;10489439;28;2043;-49
2022/11/08 12:58:49;;;;;;;;;;;;;;;21.97;53.40;95488.53;10482633;28;2001;-49
2022/11/08 13:03:55;;;;;;;;;;;;;;;22.17;52.89;95485.56;10481774;28;1970;-48
2022/11/08 13:09:17;;;;;;;;;;;;;;;22.19;52.76;95490.56;10481549;28;2008;-49
2022/11/08 13:14:18;;;;;;;;;;;;;;;21.86;53.20;95495.06;10480927;28;2153;-47
2022/11/08 13:19:28;;;;;;;;;;;;;;;21.58;54.60;95502.00;10484124;28;1994;-51
2022/11/08 13:24:33;;;;;;;;;;;;;;;21.44;55.00;95495.09;10484813;28;2074;-47
2022/11/08 13:29:33;;;;;;;;;;;;;;;21.36;55.24;95508.91;10480260;28;2015;-50
2022/11/08 13:34:39;;;;;;;;;;;;;;;21.29;56.08;95503.22;10484208;28;2177;-49
2022/11/08 13:39:47;;;;;;;;;;;;;;;21.23;56.33;95499.06;10482202;28;1954;-51
2022/11/08 13:44:53;;;;;;;;;;;;;;;21.29;56.29;95504.00;10481605;28;2256;-51
2022/11/08 13:50:15;;;;;;;;;;;;;;;21.51;56.81;95506.09;10482267;28;1940;-49
2022/11/08 13:55:34;;;;;;;;;;;;;;;21.51;55.73;95490.25;10485477;28;2282;-49
2022/11/08 14:00:41;;;;;;;;;;;;;;;21.30;55.54;95495.03;10481345;28;1987;-52
2022/11/08 14:05:42;;;;;;;;;;;;;;;21.15;56.74;95489.16;10481434;28;1996;-52
2022/11/08 14:10:49;;;;;;;;;;;;;;;21.01;56.83;95481.91;10480324;28;1991;-46
2022/11/08 14:15:56;;;;;;;;;;;;;;;20.95;57.55;95480.41;10482782;28;2006;-48
2022/11/08 14:20:56;;;;;;;;;;;;;;;20.86;57.61;95479.47;10490330;28;2059;-48
2022/11/08 14:25:57;;;;;;;;;;;;;;;20.79;58.05;95489.53;10483979;28;2093;-47
2022/11/08 14:30:58;;;;;;;;;;;;;;;20.73;58.72;95495.16;10483671;28;2075;-50
2022/11/08 14:36:00;;;;;;;;;;;;;;;20.69;58.94;95492.28;10481625;28;2121;-50
2022/11/08 14:41:01;;;;;;;;;;;;;;;20.67;58.35;95496.28;10482253;28;2039;-46
2022/11/08 14:46:09;;;;;;;;;;;;;;;20.70;58.51;95490.44;10481072;28;2125;-49
2022/11/08 14:51:12;;;;;;;;;;;;;;;20.81;58.58;95492.69;10486047;28;2021;-50
2022/11/08 14:56:19;;;;;;;;;;;;;;;20.87;57.52;95494.22;10483935;28;2003;-50
2022/11/08 15:01:21;;;;;;;;;;;;;;;20.96;57.39;95486.44;10481456;28;2071;-47
2022/11/08 15:06:30;;;;;;;;;;;;;;;20.94;57.06;95499.91;10476116;28;2019;-48
2022/11/08 15:11:31;;;;;;;;;;;;;;;20.87;58.44;95486.31;10474743;28;1980;-49
2022/11/08 15:16:38;;;;;;;;;;;;;;;20.82;58.11;95480.28;10476766;28;1998;-49
2022/11/08 15:21:44;;;;;;;;;;;;;;;20.78;58.38;95474.03;10481204;28;2264;-50
2022/11/08 15:27:04;;;;;;;;;;;;;;;20.72;57.94;95477.78;10509397;28;1955;-49
2022/11/08 15:32:04;;;;;;;;;;;;;;;20.65;58.45;95472.84;10482660;28;1944;-46
2022/11/08 15:37:25;;;;;;;;;;;;;;;20.63;58.64;95464.44;10479014;28;2002;-49
2022/11/08 15:42:25;;;;;;;;;;;;;;;20.61;58.64;95465.81;10488471;28;2129;-47
2022/11/08 15:47:40;;;;;;;;;;;;;;;20.58;58.58;95475.03;10487376;28;2066;-47
2022/11/08 15:52:44;;;;;;;;;;;;;;;20.55;58.92;95475.59;10488383;28;2113;-48
2022/11/08 15:57:44;;;;;;;;;;;;;;;20.56;57.71;95469.28;10493813;28;1994;-48
2022/11/08 16:02:45;;;;;;;;;;;;;;;20.57;58.74;95472.66;10488812;28;2144;-50
2022/11/08 16:07:46;;;;;;;;;;;;;;;20.56;59.05;95458.75;10484576;28;2007;-45
2022/11/08 16:12:46;;;;;;;;;;;;;;;20.52;59.29;95465.63;10482436;28;1943;-47
2022/11/08 16:17:47;;;;;;;;;;;;;;;20.51;59.36;95453.50;10485039;28;2207;-48
2022/11/08 16:22:47;;;;;;;;;;;;;;;20.49;59.13;95466.19;10485126;28;2119;-48
2022/11/08 16:28:02;;;;;;;;;;;;;;;20.48;58.60;95462.00;10480939;28;1971;-45
2022/11/08 16:33:10;;;;;;;;;;;;;;;20.47;59.55;95465.66;10483800;28;1907;-47
2022/11/08 16:38:10;;;;;;;;;;;;;;;20.46;58.20;95472.00;10496745;28;2031;-47
2022/11/08 16:43:11;;;;;;;;;;;;;;;20.46;58.04;95469.38;10511716;28;1749;-48
2022/11/08 16:48:15;;;;;;;;;;;;;;;20.45;59.30;95469.63;10520380;28;1969;-47
2022/11/08 16:53:15;;;;;;;;;;;;;;;20.43;59.11;95464.66;10519813;28;3100;-49
2022/11/08 16:58:16;;;;;;;;;;;;;;;20.42;58.65;95468.38;10518357;28;1752;-47
2022/11/08 17:03:20;;;;;;;;;;;;;;;20.42;58.60;95463.09;10511128;28;1697;-45
2022/11/08 17:08:21;;;;;;;;;;;;;;;20.45;59.19;95470.44;10520464;28;1906;-45
2022/11/08 17:13:21;;;;;;;;;;;;;;;20.45;59.03;95477.53;10521246;28;1944;-46
2022/11/08 17:18:22;;;;;;;;;;;;;;;20.43;59.49;95482.28;10526101;28;2065;-47
2022/11/08 17:23:22;;;;;;;;;;;;;;;20.42;59.40;95481.53;10525427;28;1891;-47
2022/11/08 17:28:23;;;;;;;;;;;;;;;20.41;58.74;95493.13;10527604;28;1973;-44
2022/11/08 17:33:23;;;;;;;;;;;;;;;20.40;58.83;95485.50;10529676;28;1954;-46
2022/11/08 17:38:24;;;;;;;;;;;;;;;20.38;59.01;95485.75;10527235;28;1780;-47
2022/11/08 17:43:24;;;;;;;;;;;;;;;20.38;58.94;95485.75;10518360;28;1767;-45
2022/11/08 17:48:24;;;;;;;;;;;;;;;20.37;58.73;95489.47;10525488;28;1977;-50
2022/11/08 17:53:27;;;;;;;;;;;;;;;20.39;58.55;95494.44;10524134;28;1771;-46
2022/11/08 17:58:28;;;;;;;;;;;;;;;20.38;58.23;95490.25;10516764;28;1769;-48
2022/11/08 18:03:28;;;;;;;;;;;;;;;20.35;56.84;95488.97;10527314;28;1729;-48
2022/11/08 18:08:29;;;;;;;;;;;;;;;20.36;56.71;95492.38;10523788;28;1909;-47
2022/11/08 18:13:34;;;;;;;;;;;;;;;20.36;57.15;95495.03;10526595;28;1860;-47
2022/11/08 18:18:34;;;;;;;;;;;;;;;20.36;56.70;95492.38;10526802;28;1847;-47
2022/11/08 18:23:35;;;;;;;;;;;;;;;20.34;56.59;95482.13;10517883;28;1846;-47
2022/11/08 18:28:35;;;;;;;;;;;;;;;20.33;57.39;95485.81;10521234;28;1906;-45
2022/11/08 18:33:36;;;;;;;;;;;;;;;20.35;56.86;95488.16;10515094;28;1780;-45
2022/11/08 18:38:40;;;;;;;;;;;;;;;20.34;57.11;95479.47;10523285;28;1815;-45
2022/11/08 18:43:41;;;;;;;;;;;;;;;20.33;57.45;95477.94;10523344;28;1834;-49
2022/11/08 18:48:41;;;;;;;;;;;;;;;20.34;57.23;95492.66;10520026;28;2244;-45
2022/11/08 18:53:41;;;;;;;;;;;;;;;20.32;57.68;95486.88;10528969;28;1728;-47
2022/11/08 18:58:42;;;;;;;;;;;;;;;20.30;57.71;95490.88;10516886;28;1828;-48
2022/11/08 19:03:43;;;;;;;;;;;;;;;20.25;56.29;95484.59;10482049;28;1943;-44
2022/11/08 19:08:43;;;;;;;;;;;;;;;20.19;54.73;95498.03;10483917;28;1940;-46
2022/11/08 19:13:43;;;;;;;;;;;;;;;20.12;53.96;95487.03;10486061;28;2046;-47
2022/11/08 19:18:44;;;;;;;;;;;;;;;20.08;52.54;95488.66;10501552;28;2320;-44
2022/11/08 19:23:44;;;;;;;;;;;;;;;20.05;51.53;95500.50;10494434;28;2000;-46
2022/11/08 19:28:45;;;;;;;;;;;;;;;20.09;52.01;95495.50;10498043;28;2134;-46
2022/11/08 19:33:45;;;;;;;;;;;;;;;20.08;52.09;95499.16;10497642;28;1955;-46
2022/11/08 19:38:46;;;;;;;;;;;;;;;20.09;52.46;95496.25;10496591;28;2151;-44
2022/11/08 19:43:46;;;;;;;;;;;;;;;20.08;52.52;95504.44;10495569;28;1940;-45
2022/11/08 19:48:47;;;;;;;;;;;;;;;20.14;54.87;95519.13;10497084;28;2010;-45
2022/11/08 19:53:47;;;;;;;;;;;;;;;20.16;55.37;95514.38;10493663;28;2172;-46
2022/11/08 19:58:47;;;;;;;;;;;;;;;20.16;54.30;95496.72;10508342;28;2122;-46
2022/11/08 20:03:48;;;;;;;;;;;;;;;20.13;53.82;95512.31;10498787;28;2039;-47
2022/11/08 20:08:51;;;;;;;;;;;;;;;20.10;53.12;95507.56;10497295;28;2080;-45
2022/11/08 20:13:52;;;;;;;;;;;;;;;20.09;52.90;95500.75;10493136;28;2137;-49
2022/11/08 20:18:52;;;;;;;;;;;;;;;20.10;52.36;95507.56;10498494;28;1943;-49
2022/11/08 20:23:53;;;;;;;;;;;;;;;20.08;52.71;95494.69;10495902;28;2078;-48
2022/11/08 20:28:54;;;;;;;;;;;;;;;20.08;52.21;95494.69;10497921;28;1948;-46
2022/11/08 20:33:54;;;;;;;;;;;;;;;20.10;52.53;95483.88;10493828;28;2141;-45
2022/11/08 20:38:55;;;;;;;;;;;;;;;20.09;52.29;95485.72;10491654;28;2086;-48
2022/11/08 20:43:56;;;;;;;;;;;;;;;20.10;52.15;95492.56;10489254;28;2030;-47
2022/11/08 20:48:56;;;;;;;;;;;;;;;20.12;52.25;95485.19;10491673;28;2319;-47
2022/11/08 20:53:56;;;;;;;;;;;;;;;20.12;52.07;95484.41;10490019;28;1959;-49
2022/11/08 20:58:57;;;;;;;;;;;;;;;20.13;51.99;95493.88;10489972;28;2261;-49
2022/11/08 21:03:57;;;;;;;;;;;;;;;20.11;51.51;95488.88;10496182;28;1999;-47
2022/11/08 21:08:58;;;;;;;;;;;;;;;20.13;51.55;95491.25;10490758;28;2018;-44
2022/11/08 21:14:02;;;;;;;;;;;;;;;20.14;52.35;95495.44;10490454;28;2150;-47
2022/11/08 21:19:02;;;;;;;;;;;;;;;20.13;51.66;95491.25;10493994;28;2006;-45
2022/11/08 21:24:02;;;;;;;;;;;;;;;20.14;51.54;95503.31;10489086;28;2038;-45
2022/11/08 21:29:03;;;;;;;;;;;;;;;20.12;51.06;95487.81;10490123;28;1951;-46
2022/11/08 21:34:03;;;;;;;;;;;;;;;20.13;50.88;95491.25;10490085;28;2275;-44
2022/11/08 21:39:04;;;;;;;;;;;;;;;20.13;50.94;95491.25;10489182;28;1959;-44
2022/11/08 21:44:04;;;;;;;;;;;;;;;20.12;50.47;95482.56;10489822;28;2305;-49
2022/11/08 21:49:09;;;;;;;;;;;;;;;20.13;50.36;95480.72;10492852;28;2269;-46
2022/11/08 21:54:09;;;;;;;;;;;;;;;20.11;50.84;95478.34;10492362;28;2005;-47
2022/11/08 21:59:09;;;;;;;;;;;;;;;20.11;50.66;95475.72;10493671;28;2012;-45
2022/11/08 22:04:10;;;;;;;;;;;;;;;20.12;50.40;95479.13;10492294;28;2142;-47
2022/11/08 22:09:10;;;;;;;;;;;;;;;20.09;50.14;95480.47;10489767;28;2383;-45
2022/11/08 22:14:10;;;;;;;;;;;;;;;20.08;50.13;95478.13;10488311;28;2050;-44
2022/11/08 22:19:10;;;;;;;;;;;;;;;20.08;50.54;95475.50;10486724;28;2199;-46
2022/11/08 22:24:12;;;;;;;;;;;;;;;20.07;50.07;95471.31;10485753;28;2371;-47
2022/11/08 22:29:12;;;;;;;;;;;;;;;20.05;50.02;95466.28;10487487;28;2004;-43
2022/11/08 22:34:12;;;;;;;;;;;;;;;20.03;49.87;95465.03;10486857;28;2239;-44
2022/11/08 22:39:13;;;;;;;;;;;;;;;20.04;50.40;95469.22;10488034;28;2047;-48
2022/11/08 22:44:14;;;;;;;;;;;;;;;20.01;49.90;95457.38;10476198;28;2049;-47
2022/11/08 22:49:14;;;;;;;;;;;;;;;20.04;50.40;95453.44;10492075;28;2113;-51
2022/11/08 22:54:15;;;;;;;;;;;;;;;20.02;49.46;95468.69;10490628;28;2111;-49
2022/11/08 22:59:15;;;;;;;;;;;;;;;20.01;50.23;95465.28;10487899;28;1974;-51
2022/11/08 23:04:16;;;;;;;;;;;;;;;20.00;49.90;95466.34;10491503;28;2018;-50
2022/11/08 23:09:16;;;;;;;;;;;;;;;19.99;49.57;95469.28;10488187;28;2070;-48
2022/11/08 23:24:57;;;;;;;;;;;;;;;19.95;49.80;95452.44;10488098;28;2015;-48
2022/11/08 23:35:17;;;;;;;;;;;;;;;19.93;49.53;95455.34;10485167;28;2235;-47
2022/11/08 23:45:36;;;;;;;;;;;;;;;19.88;49.28;95452.78;10484674;28;2100;-45
2022/11/08 23:50:37;;;;;;;;;;;;;;;19.87;48.33;95447.78;10483958;28;2087;-47
2022/11/08 23:55:37;;;;;;;;;;;;;;;19.87;48.58;95442.50;10483462;28;2173;-47
